createdAt,value
2023-03-19T00:00:47.357Z,984.406
2023-03-19T00:01:47.219Z,984.364
2023-03-19T00:02:47.810Z,984.330
2023-03-19T00:03:47.681Z,984.472
2023-03-19T00:04:47.250Z,984.406
2023-03-19T00:05:47.945Z,984.359
2023-03-19T00:06:47.560Z,984.378
2023-03-19T00:07:47.442Z,984.283
2023-03-19T00:08:47.990Z,984.456
2023-03-19T00:09:47.570Z,984.308
2023-03-19T00:10:47.125Z,984.389
2023-03-19T00:11:47.677Z,984.379
2023-03-19T00:12:47.415Z,984.296
2023-03-19T00:13:47.912Z,984.296
2023-03-19T00:14:47.473Z,984.441
2023-03-19T00:15:47.064Z,984.437
2023-03-19T00:16:47.895Z,984.316
2023-03-19T00:17:47.475Z,984.229
2023-03-19T00:18:47.017Z,984.276
2023-03-19T00:19:47.533Z,984.408
2023-03-19T00:20:47.085Z,984.330
2023-03-19T00:21:47.924Z,984.268
2023-03-19T00:22:47.539Z,984.275
2023-03-19T00:23:47.164Z,984.331
2023-03-19T00:24:47.709Z,984.289
2023-03-19T00:25:47.368Z,984.333
2023-03-19T00:26:47.903Z,984.223
2023-03-19T00:27:47.387Z,984.341
2023-03-19T00:28:47.913Z,984.381
2023-03-19T00:29:47.751Z,984.393
2023-03-19T00:30:47.414Z,984.423
2023-03-19T00:31:47.076Z,984.374
2023-03-19T00:32:47.634Z,984.433
2023-03-19T00:33:47.471Z,984.484
2023-03-19T00:34:47.023Z,984.389
2023-03-19T00:35:47.738Z,984.361
2023-03-19T00:36:47.464Z,984.352
2023-03-19T00:37:47.341Z,984.414
2023-03-19T00:38:47.821Z,984.526
2023-03-19T00:39:47.464Z,984.450
2023-03-19T00:40:47.094Z,984.495
2023-03-19T00:41:47.597Z,984.310
2023-03-19T00:42:47.361Z,984.448
2023-03-19T00:43:47.948Z,984.467
2023-03-19T00:44:47.557Z,984.446
2023-03-19T00:45:47.223Z,984.282
2023-03-19T00:46:47.918Z,984.423
2023-03-19T00:47:47.568Z,984.439
2023-03-19T00:48:47.042Z,984.440
2023-03-19T00:49:47.576Z,984.382
2023-03-19T00:50:47.232Z,984.403
2023-03-19T00:51:47.795Z,984.461
2023-03-19T00:52:47.421Z,984.351
2023-03-19T00:53:47.908Z,984.421
2023-03-19T00:54:47.530Z,984.387
2023-03-19T00:55:47.107Z,984.427
2023-03-19T00:56:47.700Z,984.514
2023-03-19T00:57:47.301Z,984.495
2023-03-19T00:58:47.798Z,984.416
2023-03-19T00:59:47.320Z,984.430
2023-03-19T01:00:47.914Z,984.416
2023-03-19T01:01:47.865Z,984.388
2023-03-19T01:02:47.561Z,984.412
2023-03-19T01:03:47.114Z,984.453
2023-03-19T01:04:47.879Z,984.490
2023-03-19T01:05:47.455Z,984.485
2023-03-19T01:06:47.040Z,984.339
2023-03-19T01:07:47.615Z,984.423
2023-03-19T01:08:47.238Z,984.435
2023-03-19T01:09:47.845Z,984.400
2023-03-19T01:10:47.431Z,984.528
2023-03-19T01:11:47.153Z,984.371
2023-03-19T01:12:47.761Z,984.519
2023-03-19T01:13:47.337Z,984.334
2023-03-19T01:14:47.847Z,984.386
2023-03-19T01:15:47.645Z,984.387
2023-03-19T01:16:47.269Z,984.485
2023-03-19T01:17:47.805Z,984.382
2023-03-19T01:18:47.315Z,984.378
2023-03-19T01:19:47.244Z,984.396
2023-03-19T01:20:47.882Z,984.518
2023-03-19T01:21:47.428Z,984.421
2023-03-19T01:22:47.023Z,984.530
2023-03-19T01:23:47.673Z,984.610
2023-03-19T01:24:47.157Z,984.449
2023-03-19T01:25:47.595Z,984.497
2023-03-19T01:26:47.398Z,984.617
2023-03-19T01:27:47.014Z,984.487
2023-03-19T01:28:47.568Z,984.392
2023-03-19T01:29:47.056Z,984.529
2023-03-19T01:30:47.582Z,984.574
2023-03-19T01:31:47.252Z,984.495
2023-03-19T01:32:47.886Z,984.496
2023-03-19T01:33:47.937Z,984.557
2023-03-19T01:34:47.611Z,984.588
2023-03-19T01:35:47.267Z,984.468
2023-03-19T01:36:47.876Z,984.471
2023-03-19T01:37:47.272Z,984.519
2023-03-19T01:38:47.989Z,984.483
2023-03-19T01:39:47.550Z,984.475
2023-03-19T01:40:47.105Z,984.508
2023-03-19T01:41:47.649Z,984.403
2023-03-19T01:42:47.277Z,984.453
2023-03-19T01:43:47.777Z,984.488
2023-03-19T01:44:47.509Z,984.519
2023-03-19T01:45:48.086Z,984.437
2023-03-19T01:46:47.819Z,984.485
2023-03-19T01:47:47.413Z,984.448
2023-03-19T01:48:47.044Z,984.410
2023-03-19T01:49:47.552Z,984.395
2023-03-19T01:50:47.245Z,984.544
2023-03-19T01:51:47.743Z,984.301
2023-03-19T01:52:47.252Z,984.387
2023-03-19T01:53:47.791Z,984.360
2023-03-19T01:54:47.397Z,984.328
2023-03-19T01:55:47.934Z,984.350
2023-03-19T01:56:47.429Z,984.379
2023-03-19T01:57:47.981Z,984.431
2023-03-19T01:58:47.102Z,984.275
2023-03-19T01:59:47.678Z,984.264
2023-03-19T02:00:47.228Z,984.355
2023-03-19T02:01:48.004Z,984.389
2023-03-19T02:02:47.589Z,984.316
2023-03-19T02:03:47.120Z,984.383
2023-03-19T02:04:47.987Z,984.349
2023-03-19T02:05:47.589Z,984.376
2023-03-19T02:06:47.151Z,984.284
2023-03-19T02:07:47.719Z,984.408
2023-03-19T02:08:47.374Z,984.379
2023-03-19T02:09:47.941Z,984.390
2023-03-19T02:10:47.601Z,984.328
2023-03-19T02:11:47.162Z,984.341
2023-03-19T02:12:47.881Z,984.381
2023-03-19T02:13:47.877Z,984.379
2023-03-19T02:14:47.421Z,984.455
2023-03-19T02:15:47.090Z,984.488
2023-03-19T02:16:47.010Z,984.403
2023-03-19T02:17:47.656Z,984.417
2023-03-19T02:18:47.305Z,984.232
2023-03-19T02:19:48.004Z,984.364
2023-03-19T02:20:47.644Z,984.469
2023-03-19T02:21:47.204Z,984.421
2023-03-19T02:22:47.777Z,984.320
2023-03-19T02:23:47.342Z,984.359
2023-03-19T02:24:47.852Z,984.402
2023-03-19T02:25:47.438Z,984.360
2023-03-19T02:26:47.979Z,984.510
2023-03-19T02:27:47.485Z,984.451
2023-03-19T02:28:47.978Z,984.613
2023-03-19T02:29:49.311Z,984.397
2023-03-19T02:30:47.979Z,984.485
2023-03-19T02:31:47.844Z,984.444
2023-03-19T02:32:47.370Z,984.405
2023-03-19T02:33:47.161Z,984.492
2023-03-19T02:34:47.769Z,984.543
2023-03-19T02:35:47.462Z,984.395
2023-03-19T02:36:47.213Z,984.378
2023-03-19T02:37:47.834Z,984.358
2023-03-19T02:38:47.413Z,984.592
2023-03-19T02:39:48.023Z,984.537
2023-03-19T02:40:47.648Z,984.432
2023-03-19T02:41:47.233Z,984.402
2023-03-19T02:42:47.848Z,984.399
2023-03-19T02:43:47.561Z,984.252
2023-03-19T02:44:47.074Z,984.461
2023-03-19T02:45:47.777Z,984.482
2023-03-19T02:46:47.375Z,984.376
2023-03-19T02:47:47.992Z,984.522
2023-03-19T02:48:47.504Z,984.480
2023-03-19T02:49:47.042Z,984.525
2023-03-19T02:50:47.688Z,984.308
2023-03-19T02:51:47.228Z,984.317
2023-03-19T02:52:47.804Z,984.485
2023-03-19T02:53:47.448Z,984.415
2023-03-19T02:54:47.936Z,984.471
2023-03-19T02:55:47.624Z,984.369
2023-03-19T02:56:47.114Z,984.370
2023-03-19T02:57:47.675Z,984.418
2023-03-19T02:58:47.298Z,984.408
2023-03-19T02:59:46.996Z,984.499
2023-03-19T03:00:47.584Z,984.427
2023-03-19T03:01:47.359Z,984.478
2023-03-19T03:02:47.533Z,984.472
2023-03-19T03:03:47.074Z,984.587
2023-03-19T03:04:47.609Z,984.514
2023-03-19T03:05:47.403Z,984.622
2023-03-19T03:06:47.045Z,984.451
2023-03-19T03:07:47.777Z,984.531
2023-03-19T03:08:47.274Z,984.514
2023-03-19T03:09:47.992Z,984.585
2023-03-19T03:10:47.544Z,984.521
2023-03-19T03:11:47.123Z,984.443
2023-03-19T03:12:47.668Z,984.577
2023-03-19T03:13:47.261Z,984.534
2023-03-19T03:14:47.864Z,984.524
2023-03-19T03:15:47.395Z,984.487
2023-03-19T03:16:47.097Z,984.486
2023-03-19T03:17:47.716Z,984.544
2023-03-19T03:18:47.309Z,984.626
2023-03-19T03:19:47.918Z,984.534
2023-03-19T03:20:47.510Z,984.595
2023-03-19T03:21:47.191Z,984.674
2023-03-19T03:22:47.115Z,984.605
2023-03-19T03:23:47.628Z,984.639
2023-03-19T03:24:47.168Z,984.680
2023-03-19T03:25:47.904Z,984.602
2023-03-19T03:26:47.498Z,984.627
2023-03-19T03:27:47.056Z,984.583
2023-03-19T03:28:47.665Z,984.605
2023-03-19T03:29:47.285Z,984.552
2023-03-19T03:30:47.877Z,984.668
2023-03-19T03:31:47.539Z,984.659
2023-03-19T03:32:47.228Z,984.683
2023-03-19T03:33:47.893Z,984.694
2023-03-19T03:34:47.473Z,984.650
2023-03-19T03:35:47.206Z,984.653
2023-03-19T03:36:47.822Z,984.665
2023-03-19T03:37:47.388Z,984.732
2023-03-19T03:38:47.037Z,984.697
2023-03-19T03:39:47.781Z,984.656
2023-03-19T03:40:47.469Z,984.861
2023-03-19T03:41:47.165Z,984.712
2023-03-19T03:42:47.701Z,984.804
2023-03-19T03:43:47.288Z,984.867
2023-03-19T03:44:47.817Z,984.836
2023-03-19T03:45:47.369Z,984.913
2023-03-19T03:46:47.212Z,984.905
2023-03-19T03:47:47.873Z,984.932
2023-03-19T03:48:47.613Z,984.879
2023-03-19T03:49:47.092Z,984.787
2023-03-19T03:50:47.638Z,984.869
2023-03-19T03:51:47.224Z,984.911
2023-03-19T03:52:47.813Z,984.911
2023-03-19T03:53:47.400Z,984.977
2023-03-19T03:54:47.957Z,984.891
2023-03-19T03:55:47.492Z,984.865
2023-03-19T03:56:47.045Z,984.900
2023-03-19T03:57:47.886Z,984.822
2023-03-19T03:58:47.449Z,984.871
2023-03-19T03:59:47.937Z,984.903
2023-03-19T04:00:47.545Z,984.893
2023-03-19T04:01:47.271Z,984.863
2023-03-19T04:02:47.082Z,984.970
2023-03-19T04:03:47.951Z,984.922
2023-03-19T04:04:47.552Z,984.963
2023-03-19T04:05:47.141Z,984.906
2023-03-19T04:06:47.707Z,984.851
2023-03-19T04:07:47.221Z,984.891
2023-03-19T04:08:47.721Z,984.900
2023-03-19T04:09:47.263Z,984.802
2023-03-19T04:10:47.817Z,984.863
2023-03-19T04:11:47.942Z,984.910
2023-03-19T04:12:47.188Z,984.855
2023-03-19T04:13:47.774Z,984.972
2023-03-19T04:14:47.315Z,984.851
2023-03-19T04:15:47.918Z,984.882
2023-03-19T04:16:48.689Z,984.850
2023-03-19T04:17:48.681Z,984.856
2023-03-19T04:18:47.272Z,984.763
2023-03-19T04:19:47.915Z,984.897
2023-03-19T04:20:47.705Z,984.786
2023-03-19T04:21:47.238Z,984.932
2023-03-19T04:22:47.810Z,984.893
2023-03-19T04:23:47.443Z,984.947
2023-03-19T04:24:47.969Z,985.033
2023-03-19T04:25:47.529Z,985.050
2023-03-19T04:26:47.087Z,984.922
2023-03-19T04:27:47.630Z,984.966
2023-03-19T04:28:47.389Z,985.083
2023-03-19T04:29:47.877Z,984.989
2023-03-19T04:30:47.448Z,985.112
2023-03-19T04:31:47.406Z,985.077
2023-03-19T04:32:47.991Z,984.979
2023-03-19T04:33:47.717Z,985.010
2023-03-19T04:34:47.313Z,985.092
2023-03-19T04:35:47.918Z,985.047
2023-03-19T04:36:47.543Z,985.133
2023-03-19T04:37:47.076Z,985.070
2023-03-19T04:38:47.681Z,985.173
2023-03-19T04:39:47.214Z,985.031
2023-03-19T04:40:46.992Z,985.123
2023-03-19T04:41:47.630Z,985.207
2023-03-19T04:42:47.224Z,985.192
2023-03-19T04:43:47.732Z,985.127
2023-03-19T04:44:47.285Z,985.182
2023-03-19T04:45:47.891Z,985.059
2023-03-19T04:46:47.860Z,984.971
2023-03-19T04:47:47.416Z,985.023
2023-03-19T04:48:47.049Z,985.041
2023-03-19T04:49:47.555Z,985.034
2023-03-19T04:50:47.115Z,985.145
2023-03-19T04:51:47.646Z,985.036
2023-03-19T04:52:47.219Z,985.072
2023-03-19T04:53:47.733Z,985.051
2023-03-19T04:54:47.309Z,985.049
2023-03-19T04:55:47.889Z,985.059
2023-03-19T04:56:47.478Z,985.112
2023-03-19T04:57:47.108Z,985.051
2023-03-19T04:58:47.668Z,985.121
2023-03-19T04:59:47.824Z,985.084
2023-03-19T05:00:47.462Z,985.062
2023-03-19T05:01:47.125Z,985.188
2023-03-19T05:02:47.753Z,985.176
2023-03-19T05:03:47.429Z,985.060
2023-03-19T05:04:47.090Z,985.190
2023-03-19T05:05:47.939Z,985.179
2023-03-19T05:06:47.481Z,985.235
2023-03-19T05:07:47.022Z,985.233
2023-03-19T05:08:47.817Z,985.212
2023-03-19T05:09:47.300Z,985.259
2023-03-19T05:10:47.818Z,985.268
2023-03-19T05:11:47.332Z,985.306
2023-03-19T05:12:47.897Z,985.252
2023-03-19T05:13:47.788Z,985.286
2023-03-19T05:14:47.314Z,985.179
2023-03-19T05:15:47.908Z,985.377
2023-03-19T05:16:47.712Z,985.311
2023-03-19T05:17:47.287Z,985.359
2023-03-19T05:18:47.860Z,985.448
2023-03-19T05:19:47.544Z,985.458
2023-03-19T05:20:47.100Z,985.453
2023-03-19T05:21:47.657Z,985.400
2023-03-19T05:22:47.237Z,985.506
2023-03-19T05:23:47.858Z,985.492
2023-03-19T05:24:47.343Z,985.587
2023-03-19T05:25:47.988Z,985.462
2023-03-19T05:26:47.612Z,985.540
2023-03-19T05:27:47.190Z,985.538
2023-03-19T05:28:47.791Z,985.542
2023-03-19T05:29:47.348Z,985.488
2023-03-19T05:30:47.121Z,985.512
2023-03-19T05:31:47.893Z,985.448
2023-03-19T05:32:47.561Z,985.488
2023-03-19T05:33:47.271Z,985.589
2023-03-19T05:34:47.853Z,985.626
2023-03-19T05:35:47.502Z,985.577
2023-03-19T05:36:47.077Z,985.477
2023-03-19T05:37:47.669Z,985.518
2023-03-19T05:38:47.261Z,985.517
2023-03-19T05:39:47.972Z,985.502
2023-03-19T05:40:47.471Z,985.540
2023-03-19T05:41:47.968Z,985.562
2023-03-19T05:42:47.480Z,985.528
2023-03-19T05:43:47.996Z,985.581
2023-03-19T05:44:47.524Z,985.496
2023-03-19T05:45:47.068Z,985.484
2023-03-19T05:46:47.705Z,985.577
2023-03-19T05:47:47.248Z,985.592
2023-03-19T05:48:47.769Z,985.460
2023-03-19T05:49:47.428Z,985.597
2023-03-19T05:50:47.952Z,985.653
2023-03-19T05:51:47.545Z,985.707
2023-03-19T05:52:47.114Z,985.693
2023-03-19T05:53:47.837Z,985.865
2023-03-19T05:54:47.346Z,985.801
2023-03-19T05:55:47.882Z,985.870
2023-03-19T05:56:47.420Z,985.811
2023-03-19T05:57:47.285Z,985.770
2023-03-19T05:58:47.882Z,985.967
2023-03-19T05:59:47.500Z,985.864
2023-03-19T06:00:47.069Z,985.825
2023-03-19T06:01:47.816Z,985.889
2023-03-19T06:02:47.537Z,986.030
2023-03-19T06:03:47.280Z,986.047
2023-03-19T06:04:47.500Z,986.023
2023-03-19T06:05:47.022Z,985.841
2023-03-19T06:06:47.672Z,985.997
2023-03-19T06:07:47.181Z,986.044
2023-03-19T06:08:47.796Z,985.988
2023-03-19T06:09:47.311Z,985.976
2023-03-19T06:10:47.807Z,986.083
2023-03-19T06:11:47.367Z,986.076
2023-03-19T06:12:47.827Z,986.119
2023-03-19T06:13:47.486Z,986.106
2023-03-19T06:14:47.998Z,986.147
2023-03-19T06:15:47.559Z,985.973
2023-03-19T06:16:47.328Z,986.043
2023-03-19T06:17:47.836Z,986.176
2023-03-19T06:18:47.464Z,986.071
2023-03-19T06:19:47.881Z,986.089
2023-03-19T06:20:47.388Z,986.113
2023-03-19T06:21:47.932Z,986.166
2023-03-19T06:22:47.457Z,986.227
2023-03-19T06:23:47.049Z,986.147
2023-03-19T06:24:47.586Z,986.134
2023-03-19T06:25:47.175Z,986.096
2023-03-19T06:26:47.742Z,986.104
2023-03-19T06:27:47.209Z,986.200
2023-03-19T06:28:47.684Z,986.190
2023-03-19T06:29:47.405Z,986.138
2023-03-19T06:30:47.961Z,986.204
2023-03-19T06:31:47.673Z,986.214
2023-03-19T06:32:47.274Z,986.165
2023-03-19T06:33:47.856Z,986.134
2023-03-19T06:34:47.396Z,986.249
2023-03-19T06:35:47.096Z,986.229
2023-03-19T06:36:47.534Z,986.291
2023-03-19T06:37:47.117Z,986.191
2023-03-19T06:38:47.584Z,986.226
2023-03-19T06:39:47.090Z,986.317
2023-03-19T06:40:47.644Z,986.250
2023-03-19T06:41:47.108Z,986.324
2023-03-19T06:42:47.048Z,986.419
2023-03-19T06:43:47.573Z,986.353
2023-03-19T06:44:47.176Z,986.302
2023-03-19T06:45:47.831Z,986.282
2023-03-19T06:46:47.757Z,986.413
2023-03-19T06:47:47.324Z,986.553
2023-03-19T06:48:47.806Z,986.402
2023-03-19T06:49:47.569Z,986.374
2023-03-19T06:50:47.237Z,986.508
2023-03-19T06:51:47.763Z,986.472
2023-03-19T06:52:47.482Z,986.418
2023-03-19T06:53:47.991Z,986.523
2023-03-19T06:54:47.685Z,986.545
2023-03-19T06:55:47.169Z,986.447
2023-03-19T06:56:47.685Z,986.469
2023-03-19T06:57:47.268Z,986.471
2023-03-19T06:58:47.836Z,986.508
2023-03-19T06:59:47.393Z,986.506
2023-03-19T07:00:47.999Z,986.459
2023-03-19T07:01:47.076Z,986.521
2023-03-19T07:02:47.716Z,986.519
2023-03-19T07:03:47.214Z,986.595
2023-03-19T07:04:47.216Z,986.597
2023-03-19T07:05:47.697Z,986.619
2023-03-19T07:06:47.173Z,986.551
2023-03-19T07:07:47.740Z,986.644
2023-03-19T07:08:47.191Z,986.685
2023-03-19T07:09:47.748Z,986.813
2023-03-19T07:10:47.229Z,986.692
2023-03-19T07:11:47.744Z,986.789
2023-03-19T07:12:47.253Z,986.845
2023-03-19T07:13:47.729Z,986.874
2023-03-19T07:14:47.307Z,986.878
2023-03-19T07:15:47.848Z,986.928
2023-03-19T07:16:47.681Z,986.903
2023-03-19T07:17:47.444Z,986.964
2023-03-19T07:18:48.007Z,986.959
2023-03-19T07:19:47.625Z,986.975
2023-03-19T07:20:47.141Z,986.964
2023-03-19T07:21:47.799Z,987.070
2023-03-19T07:22:47.358Z,987.033
2023-03-19T07:23:47.890Z,987.121
2023-03-19T07:24:47.494Z,987.110
2023-03-19T07:25:47.941Z,987.053
2023-03-19T07:26:47.469Z,987.127
2023-03-19T07:27:47.993Z,987.149
2023-03-19T07:28:47.557Z,987.047
2023-03-19T07:29:47.125Z,987.182
2023-03-19T07:30:47.626Z,987.198
2023-03-19T07:31:47.453Z,987.089
2023-03-19T07:32:48.025Z,987.058
2023-03-19T07:33:47.965Z,987.163
2023-03-19T07:34:47.460Z,987.241
2023-03-19T07:35:48.030Z,987.166
2023-03-19T07:36:47.578Z,987.262
2023-03-19T07:37:47.402Z,987.264
2023-03-19T07:38:47.958Z,987.228
2023-03-19T07:39:47.496Z,987.217
2023-03-19T07:40:59.270Z,987.217
2023-03-19T07:41:47.503Z,987.304
2023-03-19T07:42:47.287Z,987.274
2023-03-19T07:43:47.827Z,987.323
2023-03-19T07:44:47.486Z,987.330
2023-03-19T07:45:47.056Z,987.233
2023-03-19T07:46:47.957Z,987.320
2023-03-19T07:47:49.881Z,987.347
2023-03-19T07:48:47.821Z,987.373
2023-03-19T07:49:47.364Z,987.292
2023-03-19T07:50:47.894Z,987.296
2023-03-19T07:51:47.484Z,987.375
2023-03-19T07:52:47.986Z,987.401
2023-03-19T07:53:47.615Z,987.373
2023-03-19T07:54:47.269Z,987.223
2023-03-19T07:55:47.835Z,987.352
2023-03-19T07:56:47.728Z,987.234
2023-03-19T07:57:47.316Z,987.341
2023-03-19T07:58:47.145Z,987.338
2023-03-19T07:59:47.695Z,987.342
2023-03-19T08:00:47.236Z,987.489
2023-03-19T08:01:47.108Z,987.419
2023-03-19T08:02:47.364Z,987.303
2023-03-19T08:03:47.915Z,987.271
2023-03-19T08:04:47.774Z,987.330
2023-03-19T08:05:47.276Z,987.460
2023-03-19T08:06:47.775Z,987.404
2023-03-19T08:07:47.238Z,987.518
2023-03-19T08:08:47.835Z,987.496
2023-03-19T08:09:47.355Z,987.551
2023-03-19T08:10:47.823Z,987.620
2023-03-19T08:11:47.347Z,987.588
2023-03-19T08:12:47.874Z,987.500
2023-03-19T08:13:47.445Z,987.577
2023-03-19T08:14:47.997Z,987.595
2023-03-19T08:15:47.542Z,987.644
2023-03-19T08:16:47.422Z,987.486
2023-03-19T08:17:47.100Z,987.636
2023-03-19T08:18:47.611Z,987.544
2023-03-19T08:19:47.088Z,987.702
2023-03-19T08:20:47.761Z,987.690
2023-03-19T08:21:47.274Z,987.624
2023-03-19T08:22:47.846Z,987.653
2023-03-19T08:23:47.527Z,987.629
2023-03-19T08:24:47.118Z,987.663
2023-03-19T08:25:47.662Z,987.621
2023-03-19T08:26:47.158Z,987.739
2023-03-19T08:27:47.659Z,987.552
2023-03-19T08:28:47.203Z,987.679
2023-03-19T08:29:47.637Z,987.690
2023-03-19T08:30:47.227Z,987.681
2023-03-19T08:31:47.897Z,987.665
2023-03-19T08:32:47.384Z,987.709
2023-03-19T08:33:47.045Z,987.665
2023-03-19T08:34:49.417Z,987.777
2023-03-19T08:35:47.221Z,987.740
2023-03-19T08:36:47.775Z,987.722
2023-03-19T08:37:47.251Z,987.809
2023-03-19T08:38:47.738Z,987.702
2023-03-19T08:39:47.267Z,987.788
2023-03-19T08:40:47.835Z,987.648
2023-03-19T08:41:47.291Z,987.781
2023-03-19T08:42:47.873Z,987.781
2023-03-19T08:43:47.433Z,987.870
2023-03-19T08:44:47.065Z,987.815
2023-03-19T08:45:47.673Z,987.840
2023-03-19T08:46:47.444Z,987.828
2023-03-19T08:47:47.932Z,987.870
2023-03-19T08:48:47.800Z,987.835
2023-03-19T08:49:47.285Z,987.960
2023-03-19T08:50:47.876Z,987.985
2023-03-19T08:51:47.415Z,988.028
2023-03-19T08:52:47.946Z,987.968
2023-03-19T08:53:47.534Z,987.956
2023-03-19T08:54:47.817Z,987.885
2023-03-19T08:55:47.376Z,987.982
2023-03-19T08:56:47.854Z,987.938
2023-03-19T08:57:47.360Z,987.903
2023-03-19T08:58:47.913Z,987.864
2023-03-19T08:59:47.392Z,987.830
2023-03-19T09:00:47.920Z,987.949
2023-03-19T09:01:47.581Z,988.003
2023-03-19T09:02:47.264Z,987.958
2023-03-19T09:03:47.830Z,987.913
2023-03-19T09:04:47.468Z,988.067
2023-03-19T09:05:47.074Z,988.056
2023-03-19T09:06:47.624Z,987.984
2023-03-19T09:07:47.198Z,988.035
2023-03-19T09:08:47.742Z,988.067
2023-03-19T09:09:47.322Z,988.053
2023-03-19T09:10:49.002Z,987.958
2023-03-19T09:11:47.757Z,988.034
2023-03-19T09:12:48.530Z,988.093
2023-03-19T09:13:47.221Z,988.064
2023-03-19T09:14:47.980Z,988.112
2023-03-19T09:15:47.590Z,988.032
2023-03-19T09:16:47.506Z,988.047
2023-03-19T09:17:47.070Z,987.951
2023-03-19T09:18:47.541Z,988.174
2023-03-19T09:19:47.151Z,988.096
2023-03-19T09:20:47.712Z,988.156
2023-03-19T09:21:47.341Z,988.249
2023-03-19T09:22:48.006Z,988.173
2023-03-19T09:23:47.506Z,988.089
2023-03-19T09:24:47.092Z,988.086
2023-03-19T09:25:47.644Z,988.175
2023-03-19T09:26:47.256Z,988.110
2023-03-19T09:27:47.805Z,988.062
2023-03-19T09:28:47.270Z,988.051
2023-03-19T09:29:47.931Z,988.094
2023-03-19T09:30:47.586Z,988.060
2023-03-19T09:31:47.321Z,988.138
2023-03-19T09:32:47.893Z,988.220
2023-03-19T09:33:47.526Z,988.117
2023-03-19T09:34:47.148Z,988.124
2023-03-19T09:35:47.824Z,988.221
2023-03-19T09:36:47.476Z,988.212
2023-03-19T09:37:48.284Z,988.264
2023-03-19T09:38:47.107Z,988.163
2023-03-19T09:39:47.709Z,988.116
2023-03-19T09:40:47.981Z,988.066
2023-03-19T09:41:47.645Z,988.202
2023-03-19T09:42:47.262Z,988.161
2023-03-19T09:43:47.956Z,988.277
2023-03-19T09:44:47.537Z,988.120
2023-03-19T09:45:47.066Z,988.143
2023-03-19T09:46:47.742Z,988.094
2023-03-19T09:47:47.366Z,988.066
2023-03-19T09:48:47.909Z,988.037
2023-03-19T09:49:47.510Z,988.108
2023-03-19T09:50:47.281Z,988.041
2023-03-19T09:51:47.855Z,987.971
2023-03-19T09:52:47.824Z,988.019
2023-03-19T09:53:47.363Z,987.967
2023-03-19T09:54:47.849Z,988.167
2023-03-19T09:55:47.425Z,987.946
2023-03-19T09:56:47.943Z,988.072
2023-03-19T09:57:47.501Z,988.111
2023-03-19T09:58:47.028Z,988.105
2023-03-19T09:59:47.537Z,988.120
2023-03-19T10:00:47.355Z,988.055
2023-03-19T10:01:47.057Z,987.906
2023-03-19T10:02:47.791Z,988.096
2023-03-19T10:03:47.483Z,988.172
2023-03-19T10:04:47.289Z,988.138
2023-03-19T10:05:47.876Z,988.107
2023-03-19T10:06:47.455Z,988.139
2023-03-19T10:07:47.916Z,988.122
2023-03-19T10:08:47.564Z,988.010
2023-03-19T10:09:47.083Z,988.107
2023-03-19T10:10:47.703Z,988.112
2023-03-19T10:11:47.252Z,988.204
2023-03-19T10:12:47.728Z,988.140
2023-03-19T10:13:47.327Z,988.167
2023-03-19T10:14:47.864Z,988.090
2023-03-19T10:15:47.479Z,988.201
2023-03-19T10:16:47.423Z,988.174
2023-03-19T10:17:47.983Z,988.076
2023-03-19T10:18:47.764Z,988.060
2023-03-19T10:19:47.175Z,988.158
2023-03-19T10:20:47.680Z,988.119
2023-03-19T10:21:47.169Z,988.133
2023-03-19T10:22:47.709Z,988.186
2023-03-19T10:23:47.273Z,988.210
2023-03-19T10:24:47.779Z,988.208
2023-03-19T10:25:47.399Z,988.201
2023-03-19T10:26:47.926Z,988.187
2023-03-19T10:27:47.505Z,988.155
2023-03-19T10:28:48.005Z,988.207
2023-03-19T10:29:47.612Z,988.238
2023-03-19T10:30:47.269Z,988.321
2023-03-19T10:31:47.872Z,988.356
2023-03-19T10:32:47.536Z,988.312
2023-03-19T10:33:47.137Z,988.309
2023-03-19T10:34:47.701Z,988.315
2023-03-19T10:35:47.337Z,988.340
2023-03-19T10:36:47.968Z,988.254
2023-03-19T10:37:47.487Z,988.240
2023-03-19T10:38:47.068Z,988.148
2023-03-19T10:39:47.591Z,988.307
2023-03-19T10:40:47.224Z,988.282
2023-03-19T10:41:47.866Z,988.276
2023-03-19T10:42:47.444Z,988.270
2023-03-19T10:43:47.005Z,988.203
2023-03-19T10:44:47.480Z,988.252
2023-03-19T10:45:47.253Z,988.259
2023-03-19T10:46:47.125Z,988.215
2023-03-19T10:47:47.580Z,988.319
2023-03-19T10:48:47.319Z,988.177
2023-03-19T10:49:47.779Z,988.269
2023-03-19T10:50:47.365Z,988.280
2023-03-19T10:51:47.949Z,988.300
2023-03-19T10:52:47.477Z,988.145
2023-03-19T10:53:47.052Z,988.265
2023-03-19T10:54:47.617Z,988.050
2023-03-19T10:55:47.241Z,988.095
2023-03-19T10:56:47.846Z,988.170
2023-03-19T10:57:47.537Z,988.120
2023-03-19T10:58:47.104Z,988.010
2023-03-19T10:59:47.660Z,988.141
2023-03-19T11:00:47.326Z,987.962
2023-03-19T11:01:47.318Z,988.096
2023-03-19T11:02:47.901Z,988.051
2023-03-19T11:03:47.538Z,988.066
2023-03-19T11:04:47.249Z,988.000
2023-03-19T11:05:47.829Z,988.108
2023-03-19T11:06:47.397Z,988.078
2023-03-19T11:07:47.929Z,988.120
2023-03-19T11:09:48.525Z,988.080
2023-03-19T11:10:48.184Z,988.164
2023-03-19T11:11:50.758Z,988.052
2023-03-19T11:12:48.464Z,988.045
2023-03-19T11:13:48.964Z,988.150
2023-03-19T11:14:48.472Z,988.061
2023-03-19T11:15:48.013Z,987.992
2023-03-19T11:16:48.825Z,988.159
2023-03-19T11:17:48.340Z,988.049
2023-03-19T11:18:48.872Z,988.136
2023-03-19T11:19:48.532Z,988.224
2023-03-19T11:20:48.073Z,988.035
2023-03-19T11:21:48.657Z,988.025
2023-03-19T11:22:48.289Z,988.079
2023-03-19T11:23:48.827Z,988.133
2023-03-19T11:24:48.362Z,988.119
2023-03-19T11:25:48.024Z,988.145
2023-03-19T11:26:48.545Z,988.177
2023-03-19T11:27:48.097Z,988.114
2023-03-19T11:28:48.790Z,988.188
2023-03-19T11:29:48.244Z,988.045
2023-03-19T11:30:48.853Z,987.994
2023-03-19T11:31:48.694Z,988.115
2023-03-19T11:33:48.560Z,988.038
2023-03-19T11:34:48.125Z,988.062
2023-03-19T11:35:48.726Z,988.103
2023-03-19T11:36:48.420Z,987.969
2023-03-19T11:37:48.946Z,987.960
2023-03-19T11:38:48.541Z,987.955
2023-03-19T11:39:48.092Z,987.882
2023-03-19T11:40:48.563Z,987.928
2023-03-19T11:41:48.108Z,987.861
2023-03-19T11:42:48.723Z,987.849
2023-03-19T11:43:48.365Z,987.780
2023-03-19T11:44:48.079Z,987.766
2023-03-19T11:45:48.662Z,987.759
2023-03-19T11:46:48.413Z,987.767
2023-03-19T11:47:48.794Z,987.782
2023-03-19T11:48:48.305Z,987.646
2023-03-19T11:49:48.954Z,987.710
2023-03-19T11:50:48.537Z,987.706
2023-03-19T11:51:48.093Z,987.745
2023-03-19T11:52:48.701Z,987.543
2023-03-19T11:53:48.273Z,987.495
2023-03-19T11:54:48.941Z,987.440
2023-03-19T11:55:48.450Z,987.545
2023-03-19T11:56:48.143Z,987.421
2023-03-19T11:57:48.785Z,987.300
2023-03-19T11:58:48.305Z,987.433
2023-03-19T11:59:48.926Z,987.386
2023-03-19T12:00:48.590Z,987.391
2023-03-19T12:01:48.117Z,987.466
2023-03-19T12:02:48.894Z,987.406
2023-03-19T12:03:48.615Z,987.379
2023-03-19T12:04:48.225Z,987.302
2023-03-19T12:05:48.856Z,987.504
2023-03-19T12:06:48.426Z,987.479
2023-03-19T12:07:48.063Z,987.584